Time;durP1;ratioP1;P1;durP2;ratioP2;P2;SDS_P1;SDS_P2;PMS_P1;PMS_P2;Temp;Humidity;BMP_temperature;BMP_pressure;BME280_temperature;BME280_humidity;BME280_pressure;Samples;Min_cycle;Max_cycle;Signal;HPM_P1;HPM_P2
2022/03/31 00:00:48;;;;;;;3.88;1.35;;;3.30;99.90;;;;;;5012838;28;20049;-90
2022/03/31 00:03:19;;;;;;;3.60;1.20;;;3.30;99.90;;;;;;5004594;28;20046;-92
2022/03/31 00:05:45;;;;;;;;;;;3.20;99.90;;;;;;5009776;28;20124;-90
2022/03/31 00:08:15;;;;;;;5.15;1.55;;;3.30;99.90;;;;;;5017086;28;20037;-91
2022/03/31 00:10:42;;;;;;;4.57;1.40;;;3.30;99.90;;;;;;5009297;28;20048;-90
2022/03/31 00:13:11;;;;;;;4.32;1.45;;;3.30;99.90;;;;;;5008655;28;20379;-91
2022/03/31 00:15:38;;;;;;;5.63;1.38;;;3.30;99.90;;;;;;4990911;28;20065;-90
2022/03/31 00:18:06;;;;;;;4.05;1.48;;;3.30;99.90;;;;;;5008025;28;20426;-91
2022/03/31 00:23:54;;;;;;;4.55;1.63;;;3.30;99.90;;;;;;5009862;28;20085;-90
2022/03/31 00:26:20;;;;;;;4.63;1.45;;;3.30;99.90;;;;;;5007548;28;20115;-89
2022/03/31 00:28:45;;;;;;;5.50;1.50;;;3.30;99.90;;;;;;5008354;28;20371;-89
2022/03/31 00:31:11;;;;;;;5.03;1.35;;;3.40;99.90;;;;;;4991498;28;20042;-90
2022/03/31 00:33:37;;;;;;;6.80;1.75;;;3.40;99.90;;;;;;5011094;28;20064;-90
2022/03/31 00:36:02;;;;;;;4.80;1.40;;;3.30;99.90;;;;;;5024269;28;20057;-90
2022/03/31 00:38:28;;;;;;;3.88;1.42;;;3.30;99.90;;;;;;5014279;28;20053;-90
2022/03/31 00:40:54;;;;;;;5.70;1.40;;;3.40;99.90;;;;;;4990899;28;20053;-89
2022/03/31 00:43:20;;;;;;;5.75;1.75;;;3.30;99.90;;;;;;5008213;28;20060;-90
2022/03/31 00:45:48;;;;;;;5.03;1.48;;;3.30;99.90;;;;;;5008425;28;20057;-91
2022/03/31 00:48:16;;;;;;;6.65;1.65;;;3.30;99.90;;;;;;5012648;28;20441;-90
2022/03/31 00:50:42;;;;;;;6.15;1.55;;;3.30;99.90;;;;;;5014138;28;20046;-90
2022/03/31 00:53:08;;;;;;;5.72;1.73;;;3.40;99.90;;;;;;5035093;28;20072;-89
2022/03/31 00:55:35;;;;;;;5.88;1.83;;;3.20;99.90;;;;;;5035387;28;20042;-89
2022/03/31 00:58:01;;;;;;;7.57;1.83;;;3.30;99.90;;;;;;5012816;28;20026;-90
2022/03/31 01:00:29;;;;;;;6.07;1.77;;;3.30;99.90;;;;;;5029257;28;20050;-90
2022/03/31 01:02:55;;;;;;;5.28;1.88;;;3.30;99.90;;;;;;5008667;28;20050;-90
2022/03/31 01:05:21;;;;;;;8.85;2.70;;;3.20;99.90;;;;;;4990479;28;20171;-90
2022/03/31 01:07:47;;;;;;;8.98;3.47;;;3.20;99.90;;;;;;5007681;28;20046;-89
2022/03/31 01:10:13;;;;;;;8.68;3.45;;;3.20;99.90;;;;;;5002831;28;20491;-90
2022/03/31 01:12:40;;;;;;;8.30;3.22;;;3.20;99.90;;;;;;5008370;28;20045;-90
2022/03/31 01:15:13;;;;;;;7.90;2.60;;;3.20;99.90;;;;;;4993337;28;20101;-90
2022/03/31 01:17:40;;;;;;;6.97;2.20;;;3.20;99.90;;;;;;5009075;28;20038;-90
2022/03/31 01:20:08;;;;;;;7.22;2.17;;;3.20;99.90;;;;;;5019968;28;20057;-91
2022/03/31 01:22:35;;;;;;;7.40;2.05;;;3.20;99.90;;;;;;5032131;28;20606;-89
2022/03/31 01:25:06;;;;;;;5.28;1.73;;;3.20;99.90;;;;;;5014627;28;20094;-88
2022/03/31 01:27:37;;;;;;;8.38;1.80;;;3.20;99.90;;;;;;5025545;28;20105;-89
2022/03/31 01:30:08;;;;;;;7.00;1.80;;;3.20;99.90;;;;;;5026702;28;20049;-90
2022/03/31 01:32:34;;;;;;;4.07;1.58;;;3.20;99.90;;;;;;5009338;28;20041;-88
2022/03/31 01:34:59;;;;;;;6.10;1.67;;;3.20;99.90;;;;;;5008193;28;20053;-90
2022/03/31 01:37:25;;;;;;;5.53;1.70;;;3.30;99.90;;;;;;5007611;28;20049;-89
2022/03/31 01:39:51;;;;;;;4.88;1.45;;;3.20;99.90;;;;;;5009552;28;21370;-90
2022/03/31 01:42:17;;;;;;;4.28;1.70;;;3.20;99.90;;;;;;5005879;28;20104;-89
2022/03/31 01:44:43;;;;;;;5.03;1.83;;;3.20;99.90;;;;;;5006009;28;20053;-90
2022/03/31 01:47:09;;;;;;;5.45;1.85;;;3.20;99.90;;;;;;5007072;28;20487;-89
2022/03/31 01:49:38;;;;;;;5.18;2.20;;;3.20;99.90;;;;;;5006841;28;20379;-90
2022/03/31 01:52:06;;;;;;;6.80;2.33;;;3.10;99.90;;;;;;5005921;28;20042;-89
2022/03/31 01:54:34;;;;;;;5.93;2.20;;;3.10;99.90;;;;;;4990672;28;20058;-88
2022/03/31 01:57:00;;;;;;;8.00;2.20;;;3.10;99.90;;;;;;5004197;28;20180;-89
2022/03/31 01:59:37;;;;;;;7.15;2.13;;;3.10;99.90;;;;;;5012132;28;20057;-89
2022/03/31 02:02:04;;;;;;;7.82;2.35;;;3.10;99.90;;;;;;5009891;28;20038;-91
2022/03/31 02:04:30;;;;;;;7.75;2.50;;;3.10;99.90;;;;;;4990642;28;20046;-89
2022/03/31 02:06:56;;;;;;;6.88;2.28;;;3.00;99.90;;;;;;5012999;28;20429;-88
2022/03/31 02:09:23;;;;;;;7.45;2.92;;;3.00;99.90;;;;;;4994025;28;20402;-89
2022/03/31 02:11:49;;;;;;;6.72;2.33;;;2.90;99.90;;;;;;5014888;28;20037;-89
2022/03/31 02:14:14;;;;;;;6.97;2.30;;;3.00;99.90;;;;;;5008809;28;20125;-90
2022/03/31 02:16:40;;;;;;;5.18;1.85;;;3.00;99.90;;;;;;5012331;28;20077;-90
2022/03/31 02:19:06;;;;;;;4.72;1.77;;;3.00;99.90;;;;;;4993482;28;20049;-90
2022/03/31 02:21:32;;;;;;;6.75;2.00;;;3.00;99.90;;;;;;5015705;28;20494;-90
2022/03/31 02:23:58;;;;;;;5.85;1.85;;;3.00;99.90;;;;;;5010059;28;20133;-90
2022/03/31 02:26:24;;;;;;;5.75;2.13;;;3.00;99.90;;;;;;5011181;28;20117;-90
2022/03/31 02:28:50;;;;;;;7.95;2.08;;;2.90;99.90;;;;;;4993729;28;20053;-89
2022/03/31 02:31:15;;;;;;;4.68;1.63;;;2.90;99.90;;;;;;5011200;28;20065;-90
2022/03/31 02:33:41;;;;;;;4.47;1.85;;;2.90;99.90;;;;;;5009573;28;20486;-90
2022/03/31 02:36:07;;;;;;;5.57;1.77;;;2.90;99.90;;;;;;5010438;28;20034;-89
2022/03/31 02:38:34;;;;;;;5.00;2.20;;;2.90;99.90;;;;;;5010324;28;20043;-89
2022/03/31 02:41:01;;;;;;;6.28;1.80;;;2.90;99.90;;;;;;5014693;28;20165;-90
2022/03/31 02:43:26;;;;;;;8.70;2.13;;;2.90;99.90;;;;;;5002095;28;20053;-89
2022/03/31 02:45:52;;;;;;;4.93;1.90;;;2.90;99.90;;;;;;5017333;28;20450;-90
2022/03/31 02:48:18;;;;;;;6.38;2.95;;;2.90;99.90;;;;;;5010538;28;20054;-89
2022/03/31 02:50:44;;;;;;;6.03;2.15;;;2.90;99.90;;;;;;4995732;28;20502;-89
2022/03/31 02:55:54;;;;;;;6.03;1.92;;;2.90;99.90;;;;;;5023489;28;20050;-90
2022/03/31 02:58:19;;;;;;;7.03;2.17;;;3.00;99.90;;;;;;5007658;28;20041;-89
2022/03/31 03:00:45;;;;;;;7.03;2.42;;;2.90;99.90;;;;;;4989736;28;20492;-90
2022/03/31 03:03:11;;;;;;;5.05;2.30;;;3.00;99.90;;;;;;5008182;28;20061;-90
2022/03/31 03:05:37;;;;;;;7.88;2.33;;;3.00;99.90;;;;;;4993964;28;20475;-90
2022/03/31 03:08:04;;;;;;;7.82;2.55;;;3.00;99.90;;;;;;5014087;28;20050;-91
2022/03/31 03:10:30;;;;;;;7.65;2.30;;;3.00;99.90;;;;;;5011319;28;20041;-91
2022/03/31 03:12:57;;;;;;;6.55;2.55;;;3.00;99.90;;;;;;4991907;28;20040;-90
2022/03/31 03:15:25;;;;;;;7.25;2.83;;;3.00;99.90;;;;;;4995388;28;20077;-90
2022/03/31 03:17:50;;;;;;;8.85;2.97;;;3.00;99.90;;;;;;4993495;28;20050;-90
2022/03/31 03:20:16;;;;;;;8.63;3.28;;;3.00;99.90;;;;;;5013374;28;20549;-90
2022/03/31 03:22:47;;;;;;;11.98;3.28;;;3.10;99.90;;;;;;5024601;28;20048;-89
2022/03/31 03:25:18;;;;;;;12.02;3.15;;;3.00;99.90;;;;;;5009826;28;20403;-89
2022/03/31 03:27:44;;;;;;;9.48;3.85;;;3.00;99.90;;;;;;5009223;28;20077;-89
2022/03/31 03:30:11;;;;;;;10.45;4.40;;;3.00;99.90;;;;;;5022031;28;20037;-89
2022/03/31 03:32:37;;;;;;;8.57;3.67;;;3.00;99.90;;;;;;4992171;28;20038;-90
2022/03/31 03:35:05;;;;;;;10.70;5.07;;;3.00;99.90;;;;;;5009975;28;20450;-90
2022/03/31 03:37:31;;;;;;;10.85;4.18;;;3.00;99.90;;;;;;5009795;28;20116;-90
2022/03/31 03:39:56;;;;;;;10.02;4.38;;;3.10;99.90;;;;;;5008915;28;20033;-90
2022/03/31 03:42:22;;;;;;;10.57;5.07;;;3.10;99.90;;;;;;4990283;28;20492;-90
2022/03/31 03:44:48;;;;;;;10.88;5.55;;;3.10;99.90;;;;;;5009184;28;20034;-90
2022/03/31 03:47:14;;;;;;;10.77;5.85;;;3.10;99.90;;;;;;5008711;28;20050;-90
2022/03/31 03:49:41;;;;;;;12.18;5.95;;;3.10;99.90;;;;;;5010143;28;20068;-91
2022/03/31 03:52:07;;;;;;;10.30;5.85;;;3.10;99.90;;;;;;5004940;28;20668;-88
2022/03/31 03:54:33;;;;;;;12.15;6.72;;;3.10;99.90;;;;;;5008918;28;20046;-91
2022/03/31 03:56:58;;;;;;;12.15;6.75;;;3.10;99.90;;;;;;5009361;28;20060;-90
2022/03/31 03:59:24;;;;;;;12.40;6.35;;;3.20;99.90;;;;;;4991958;28;20399;-90
2022/03/31 04:01:50;;;;;;;13.10;6.40;;;3.10;99.90;;;;;;4989873;28;20049;-91
2022/03/31 04:04:16;;;;;;;12.07;6.97;;;3.10;99.90;;;;;;5007180;28;20412;-90
2022/03/31 04:06:42;;;;;;;12.30;6.85;;;3.30;99.90;;;;;;4994868;28;20052;-90
2022/03/31 04:09:08;;;;;;;11.98;7.53;;;3.20;99.90;;;;;;4991212;28;20058;-90
2022/03/31 04:11:34;;;;;;;11.90;7.43;;;3.20;99.90;;;;;;5005760;28;20030;-90
2022/03/31 04:14:00;;;;;;;11.52;7.03;;;3.20;99.90;;;;;;5007304;28;20505;-90
2022/03/31 04:16:25;;;;;;;11.70;7.13;;;3.20;99.90;;;;;;4991454;28;20037;-90
2022/03/31 04:18:51;;;;;;;11.75;6.82;;;3.20;99.90;;;;;;4991714;28;20053;-90
2022/03/31 04:21:17;;;;;;;12.05;6.70;;;3.20;99.90;;;;;;4990762;28;20042;-90
2022/03/31 04:23:42;;;;;;;13.60;7.18;;;3.20;99.90;;;;;;5005718;28;20042;-91
2022/03/31 04:26:08;;;;;;;10.82;7.10;;;3.20;99.90;;;;;;5013744;28;20034;-89
2022/03/31 04:28:34;;;;;;;11.80;7.13;;;3.20;99.90;;;;;;5009637;28;20046;-90
2022/03/31 04:31:00;;;;;;;12.50;7.05;;;3.20;99.90;;;;;;5007750;28;20068;-91
2022/03/31 04:33:27;;;;;;;10.85;6.75;;;3.20;99.90;;;;;;4993214;28;20046;-90
2022/03/31 04:35:52;;;;;;;10.70;6.47;;;3.30;99.90;;;;;;5012801;28;20574;-92
2022/03/31 04:38:18;;;;;;;10.57;6.72;;;3.30;99.90;;;;;;4994391;28;20181;-91
2022/03/31 04:40:43;;;;;;;10.68;6.35;;;3.10;99.90;;;;;;4994714;28;20088;-91
2022/03/31 04:43:09;;;;;;;10.52;6.32;;;3.20;99.90;;;;;;5011206;28;20076;-90
2022/03/31 04:45:35;;;;;;;10.07;6.43;;;3.10;99.90;;;;;;5013161;28;20534;-91
2022/03/31 04:48:00;;;;;;;10.63;5.88;;;3.10;99.90;;;;;;5003890;28;20116;-90
2022/03/31 04:50:26;;;;;;;11.00;6.43;;;3.10;99.90;;;;;;4991617;28;20577;-91
2022/03/31 04:52:52;;;;;;;11.35;5.95;;;3.10;99.90;;;;;;4991801;28;20053;-92
2022/03/31 04:55:17;;;;;;;12.15;6.13;;;3.10;99.90;;;;;;5009987;28;20403;-91
2022/03/31 04:57:43;;;;;;;9.35;5.57;;;3.00;99.90;;;;;;5009411;28;20509;-90
2022/03/31 05:00:09;;;;;;;10.10;5.75;;;3.00;99.90;;;;;;5007910;28;20484;-91
2022/03/31 05:02:35;;;;;;;9.85;6.00;;;3.00;99.90;;;;;;5009098;28;20442;-91
2022/03/31 05:05:00;;;;;;;10.20;6.25;;;3.00;99.90;;;;;;5009858;28;20053;-91
2022/03/31 05:07:26;;;;;;;11.27;6.03;;;3.00;99.90;;;;;;5009398;28;20491;-92
2022/03/31 05:09:53;;;;;;;9.52;5.35;;;2.90;99.90;;;;;;4991265;28;20042;-91
2022/03/31 05:12:19;;;;;;;10.63;5.80;;;2.90;99.90;;;;;;4989014;28;20078;-91
2022/03/31 05:14:44;;;;;;;9.27;5.30;;;2.90;99.90;;;;;;5008094;28;20108;-90
2022/03/31 05:17:10;;;;;;;11.10;5.53;;;2.90;99.90;;;;;;5007045;28;20096;-90
2022/03/31 05:19:37;;;;;;;9.95;5.85;;;3.00;99.90;;;;;;5009354;28;20112;-90
2022/03/31 05:22:03;;;;;;;9.10;5.60;;;3.00;99.90;;;;;;4987916;28;20125;-91
2022/03/31 05:24:28;;;;;;;9.82;5.68;;;2.90;99.90;;;;;;5008983;28;20458;-90
2022/03/31 05:26:54;;;;;;;9.35;5.85;;;2.90;99.90;;;;;;5007860;28;20046;-90
2022/03/31 05:29:21;;;;;;;10.00;5.82;;;2.90;99.90;;;;;;5008230;28;20384;-90
2022/03/31 05:31:47;;;;;;;10.15;5.65;;;2.90;99.90;;;;;;5012211;28;20042;-90
2022/03/31 05:34:13;;;;;;;10.32;5.88;;;2.80;99.90;;;;;;5013216;28;20120;-91
2022/03/31 05:36:39;;;;;;;11.15;5.97;;;2.90;99.90;;;;;;4997640;28;20128;-93
2022/03/31 05:39:05;;;;;;;10.50;6.63;;;2.90;99.90;;;;;;5025045;28;20081;-94
2022/03/31 05:41:31;;;;;;;10.65;6.57;;;2.90;99.90;;;;;;5014792;28;20038;-94
2022/03/31 05:43:57;;;;;;;11.60;6.60;;;3.00;99.90;;;;;;5012349;28;20551;-89
2022/03/31 05:46:24;;;;;;;12.43;6.00;;;2.90;99.90;;;;;;5013212;28;20034;-92
2022/03/31 05:48:49;;;;;;;11.88;6.78;;;3.00;99.90;;;;;;4997269;28;20062;-90
2022/03/31 05:51:16;;;;;;;12.45;6.68;;;3.00;99.90;;;;;;5017047;28;20033;-91
2022/03/31 05:53:42;;;;;;;11.23;6.85;;;3.00;99.90;;;;;;5035838;28;20026;-91
2022/03/31 05:56:08;;;;;;;13.13;7.13;;;3.00;99.90;;;;;;5033204;28;20064;-90
2022/03/31 05:58:34;;;;;;;12.43;7.07;;;3.00;99.90;;;;;;5006930;28;20074;-91
2022/03/31 06:01:00;;;;;;;11.77;7.05;;;3.00;99.90;;;;;;5019096;28;20061;-88
2022/03/31 06:03:26;;;;;;;12.40;7.55;;;3.10;99.90;;;;;;5013317;28;20438;-87
2022/03/31 06:05:52;;;;;;;11.20;6.88;;;3.10;99.90;;;;;;5011391;28;20061;-89
2022/03/31 06:08:18;;;;;;;12.48;7.32;;;3.10;99.90;;;;;;4996824;28;20068;-90
2022/03/31 06:10:45;;;;;;;13.70;7.97;;;3.10;99.90;;;;;;5022835;28;20054;-89
2022/03/31 06:13:11;;;;;;;12.85;7.82;;;3.10;99.90;;;;;;5033316;28;20065;-89
2022/03/31 06:15:37;;;;;;;12.93;8.07;;;3.10;99.90;;;;;;5032915;28;20034;-89
2022/03/31 06:18:04;;;;;;;12.88;8.13;;;3.20;99.90;;;;;;5024639;28;20044;-89
2022/03/31 06:20:31;;;;;;;12.30;8.18;;;3.20;99.90;;;;;;5012887;28;20458;-90
2022/03/31 06:22:57;;;;;;;12.68;8.05;;;3.20;99.90;;;;;;5012913;28;20038;-91
2022/03/31 06:25:23;;;;;;;13.05;8.23;;;3.30;99.90;;;;;;5009487;28;20176;-90
2022/03/31 06:27:49;;;;;;;12.95;8.00;;;3.30;99.90;;;;;;4993635;28;20116;-88
2022/03/31 06:30:16;;;;;;;12.10;8.05;;;3.30;99.90;;;;;;4992521;28;20049;-90
2022/03/31 06:32:42;;;;;;;13.73;8.15;;;3.30;99.90;;;;;;5027070;28;20387;-89
2022/03/31 06:35:11;;;;;;;13.68;8.77;;;3.30;99.90;;;;;;5010238;28;20368;-91
2022/03/31 06:37:39;;;;;;;12.20;8.30;;;3.40;99.90;;;;;;4994209;28;20505;-91
2022/03/31 06:40:05;;;;;;;12.20;8.43;;;3.40;99.90;;;;;;4992358;28;20045;-92
2022/03/31 06:42:31;;;;;;;13.23;8.75;;;3.40;99.90;;;;;;4994320;28;20045;-89
2022/03/31 06:44:57;;;;;;;13.40;8.80;;;3.40;99.90;;;;;;5018759;28;20445;-89
2022/03/31 06:47:23;;;;;;;12.98;8.48;;;3.40;99.90;;;;;;5010404;28;20046;-91
2022/03/31 06:49:48;;;;;;;13.15;8.55;;;3.40;99.90;;;;;;4996895;28;20045;-92
2022/03/31 06:52:14;;;;;;;12.27;7.85;;;3.40;99.90;;;;;;5022019;28;20495;-92
2022/03/31 06:54:40;;;;;;;12.85;8.20;;;3.40;99.90;;;;;;5017333;28;20043;-90
2022/03/31 06:57:06;;;;;;;12.63;7.88;;;3.40;99.90;;;;;;4992866;28;20068;-89
2022/03/31 06:59:31;;;;;;;12.52;8.60;;;3.40;99.90;;;;;;5013651;28;20098;-90
2022/03/31 07:01:57;;;;;;;12.63;8.60;;;3.40;99.90;;;;;;4995452;28;20052;-90
2022/03/31 07:04:23;;;;;;;12.30;8.23;;;3.50;99.90;;;;;;5009157;28;20042;-88
2022/03/31 07:06:49;;;;;;;11.77;7.93;;;3.50;99.90;;;;;;4993182;28;20042;-89
2022/03/31 07:09:15;;;;;;;13.77;9.63;;;3.60;99.90;;;;;;4994563;28;20379;-89
2022/03/31 07:11:41;;;;;;;14.25;9.52;;;3.60;99.90;;;;;;5009178;28;20057;-91
2022/03/31 07:14:07;;;;;;;13.23;8.65;;;3.60;99.90;;;;;;4993507;28;20050;-89
2022/03/31 07:16:32;;;;;;;13.80;9.23;;;3.60;99.90;;;;;;5009282;28;20038;-93
2022/03/31 07:18:59;;;;;;;14.00;9.05;;;3.50;99.90;;;;;;5016981;28;20072;-91
2022/03/31 07:21:26;;;;;;;14.48;9.55;;;3.50;99.90;;;;;;5010323;28;20149;-90
2022/03/31 07:23:52;;;;;;;14.05;9.23;;;3.50;99.90;;;;;;4992870;28;20410;-89
2022/03/31 07:26:19;;;;;;;14.77;9.27;;;3.50;99.90;;;;;;5008599;28;20395;-91
2022/03/31 07:28:44;;;;;;;15.15;9.82;;;3.50;99.90;;;;;;5025187;28;20045;-90
2022/03/31 07:31:10;;;;;;;14.52;9.75;;;3.50;99.90;;;;;;4990842;28;20427;-90
2022/03/31 07:33:36;;;;;;;14.93;9.27;;;3.50;99.90;;;;;;5008180;28;20441;-89
2022/03/31 07:36:01;;;;;;;14.15;9.77;;;3.60;99.90;;;;;;5007972;28;20046;-89
2022/03/31 07:38:27;;;;;;;15.80;9.75;;;3.60;99.90;;;;;;5008670;28;20044;-89
2022/03/31 07:40:53;;;;;;;15.82;10.20;;;3.60;99.90;;;;;;5010634;28;20048;-88
2022/03/31 07:43:19;;;;;;;15.55;10.38;;;3.60;99.90;;;;;;5006801;28;20045;-89
2022/03/31 07:45:45;;;;;;;15.70;10.30;;;3.60;99.90;;;;;;4991462;28;20044;-88
2022/03/31 07:48:16;;;;;;;15.10;10.50;;;3.60;99.90;;;;;;4990672;28;20046;-88
2022/03/31 07:50:42;;;;;;;16.13;11.00;;;3.60;99.90;;;;;;5008874;28;20414;-88
2022/03/31 07:53:09;;;;;;;16.90;11.00;;;3.70;99.90;;;;;;4989951;28;20049;-90
2022/03/31 07:55:35;;;;;;;17.08;11.95;;;3.70;99.90;;;;;;4992903;28;20046;-93
2022/03/31 07:58:00;;;;;;;17.10;12.25;;;3.60;99.90;;;;;;5007041;28;20045;-91
2022/03/31 08:00:26;;;;;;;17.40;12.15;;;3.70;99.90;;;;;;5015437;28;20434;-90
2022/03/31 08:02:52;;;;;;;17.35;11.25;;;3.70;99.90;;;;;;5008101;28;20034;-91
2022/03/31 08:05:21;;;;;;;16.80;11.05;;;3.70;99.90;;;;;;5008447;28;20041;-93
2022/03/31 08:07:46;;;;;;;17.02;11.32;;;3.80;99.90;;;;;;5008750;28;20050;-90
2022/03/31 08:10:13;;;;;;;18.55;11.20;;;3.70;99.90;;;;;;4990831;28;20100;-89
2022/03/31 08:12:40;;;;;;;16.55;11.63;;;3.70;99.90;;;;;;5009963;28;20514;-90
2022/03/31 08:15:07;;;;;;;17.13;10.80;;;3.70;99.90;;;;;;5007819;28;20045;-91
2022/03/31 08:17:33;;;;;;;17.42;11.30;;;3.70;99.90;;;;;;5009071;28;20068;-93
2022/03/31 08:20:00;;;;;;;16.58;11.23;;;3.60;99.90;;;;;;5009953;28;20045;-92
2022/03/31 08:22:26;;;;;;;15.75;10.95;;;3.60;99.90;;;;;;5008465;28;20042;-92
2022/03/31 08:24:53;;;;;;;16.63;11.00;;;3.70;99.90;;;;;;5009637;28;20133;-93
2022/03/31 08:27:19;;;;;;;17.88;10.93;;;3.70;99.90;;;;;;5014226;28;20511;-91
2022/03/31 08:29:45;;;;;;;17.98;12.82;;;3.70;99.90;;;;;;4992783;28;20050;-92
2022/03/31 08:32:12;;;;;;;17.30;11.52;;;3.60;99.90;;;;;;4992538;28;20046;-93
2022/03/31 08:34:38;;;;;;;16.45;10.98;;;3.70;99.90;;;;;;5005123;28;20120;-93
2022/03/31 08:37:04;;;;;;;17.08;11.07;;;3.70;99.90;;;;;;4991247;28;20042;-90
2022/03/31 08:39:30;;;;;;;17.55;10.95;;;3.70;99.90;;;;;;5007809;28;20053;-91
2022/03/31 08:41:56;;;;;;;15.52;10.05;;;3.70;99.90;;;;;;4992047;28;20095;-92
2022/03/31 08:44:22;;;;;;;17.27;11.48;;;3.60;99.90;;;;;;5007380;28;20057;-93
2022/03/31 08:46:49;;;;;;;16.85;10.82;;;3.70;99.90;;;;;;5009101;28;20057;-90
2022/03/31 08:49:16;;;;;;;17.83;10.50;;;3.70;99.90;;;;;;5009787;28;20048;-93
2022/03/31 08:51:45;;;;;;;17.42;10.07;;;3.70;99.90;;;;;;4993537;28;20164;-92
2022/03/31 08:54:12;;;;;;;14.95;9.73;;;3.70;99.90;;;;;;4993151;28;20053;-92
2022/03/31 08:56:39;;;;;;;14.68;9.25;;;3.70;99.90;;;;;;5028901;28;20042;-94
2022/03/31 08:59:06;;;;;;;14.63;9.63;;;3.70;99.90;;;;;;5031676;28;20045;-91
2022/03/31 09:01:32;;;;;;;14.82;9.70;;;3.70;99.90;;;;;;5013878;28;20050;-93
2022/03/31 09:03:58;;;;;;;14.43;8.48;;;3.70;99.90;;;;;;5011192;28;20144;-96
2022/03/31 09:06:30;;;;;;;13.75;9.10;;;3.70;99.90;;;;;;5011228;28;20100;-96
2022/03/31 09:09:03;;;;;;;14.95;8.82;;;3.70;99.90;;;;;;5043205;28;20037;-96
2022/03/31 09:11:34;;;;;;;13.02;7.80;;;3.70;99.90;;;;;;5024397;28;20041;-94
2022/03/31 09:14:02;;;;;;;12.75;7.68;;;3.70;99.90;;;;;;5010470;28;20521;-95
2022/03/31 09:16:35;;;;;;;13.70;8.57;;;3.60;99.90;;;;;;5012120;28;20065;-95
2022/03/31 09:19:04;;;;;;;13.20;7.47;;;3.60;99.90;;;;;;5026366;28;20034;-94
2022/03/31 09:21:35;;;;;;;12.93;7.05;;;3.60;99.90;;;;;;5030209;28;20057;-95
2022/03/31 09:24:02;;;;;;;11.73;6.13;;;3.50;99.90;;;;;;5012868;28;20065;-96
2022/03/31 09:47:11;;;;;;;8.38;4.00;;;3.30;99.90;;;;;;1945861;23;20325;-90
2022/03/31 09:49:37;;;;;;;8.00;3.85;;;3.10;99.90;;;;;;4877881;29;20061;-95
2022/03/31 09:52:07;;;;;;;8.27;3.97;;;3.10;99.90;;;;;;4869721;29;20077;-95
2022/03/31 09:54:34;;;;;;;7.80;3.78;;;3.10;99.90;;;;;;4887842;29;20449;-96
2022/03/31 09:57:03;;;;;;;7.78;3.70;;;3.10;99.90;;;;;;4883836;29;20041;-93
2022/03/31 09:59:32;;;;;;;8.18;3.80;;;3.10;99.90;;;;;;4886860;29;20045;-94
2022/03/31 10:01:59;;;;;;;7.97;3.72;;;3.10;99.90;;;;;;4894520;29;20039;-96
2022/03/31 10:04:25;;;;;;;7.88;3.67;;;3.10;99.90;;;;;;4891244;29;20036;-95
2022/03/31 10:06:52;;;;;;;7.32;3.50;;;3.20;99.90;;;;;;4901739;29;20033;-95
2022/03/31 10:09:18;;;;;;;9.02;3.72;;;3.20;99.90;;;;;;4874299;29;20040;-96
2022/03/31 10:11:47;;;;;;;8.05;3.75;;;3.10;99.90;;;;;;4879143;29;20048;-93
2022/03/31 10:14:16;;;;;;;7.68;3.80;;;3.10;99.90;;;;;;4862651;29;20083;-92
2022/03/31 10:16:47;;;;;;;8.82;4.43;;;3.10;99.90;;;;;;4871373;29;20086;-91
2022/03/31 10:19:26;;;;;;;8.65;4.20;;;3.10;99.90;;;;;;4879053;29;20521;-91
2022/03/31 10:22:03;;;;;;;8.60;4.15;;;3.10;99.90;;;;;;4864582;29;20056;-92
2022/03/31 10:24:41;;;;;;;8.88;4.20;;;3.10;99.90;;;;;;4865290;29;20128;-92
2022/03/31 10:27:27;;;;;;;8.20;3.97;;;3.10;99.90;;;;;;4895090;29;20053;-91
2022/03/31 10:29:54;;;;;;;8.45;4.43;;;3.00;99.90;;;;;;4893756;29;20113;-93
2022/03/31 10:32:22;;;;;;;8.13;3.92;;;3.00;99.90;;;;;;4875292;29;20048;-93
2022/03/31 10:34:54;;;;;;;7.63;3.63;;;3.00;99.90;;;;;;4898997;29;20079;-94
2022/03/31 10:37:39;;;;;;;;;;;2.90;99.90;;;;;;4880629;29;20037;-93
2022/03/31 10:40:09;;;;;;;8.57;4.13;;;2.80;99.90;;;;;;4896067;29;19972;-89
2022/03/31 10:42:36;;;;;;;8.63;3.67;;;2.80;99.90;;;;;;4912511;29;20074;-90
2022/03/31 10:45:13;;;;;;;9.57;5.43;;;2.70;99.90;;;;;;4902310;29;20190;-90
2022/03/31 10:47:40;;;;;;;9.43;4.25;;;2.70;99.90;;;;;;4886689;29;20040;-90
2022/03/31 10:50:09;;;;;;;9.20;4.40;;;2.70;99.90;;;;;;4882130;29;20172;-90
2022/03/31 10:52:35;;;;;;;8.82;4.45;;;2.70;99.90;;;;;;4895307;29;20117;-91
2022/03/31 10:55:14;;;;;;;8.32;3.97;;;2.70;99.90;;;;;;4879106;29;20044;-91
2022/03/31 10:57:43;;;;;;;7.32;3.33;;;2.60;99.90;;;;;;4857811;29;20056;-90
2022/03/31 11:00:14;;;;;;;8.02;3.88;;;2.60;99.90;;;;;;4879323;29;20040;-91
2022/03/31 11:02:45;;;;;;;7.90;4.05;;;2.60;99.90;;;;;;4893763;29;20048;-88
2022/03/31 11:05:12;;;;;;;9.02;4.15;;;2.60;99.90;;;;;;4875977;29;20079;-90
2022/03/31 11:07:38;;;;;;;8.88;4.20;;;2.50;99.90;;;;;;4870893;29;20108;-89
2022/03/31 11:10:09;;;;;;;8.82;4.65;;;2.50;99.90;;;;;;4901221;29;20028;-93
2022/03/31 11:12:36;;;;;;;10.23;4.50;;;2.50;99.90;;;;;;4909601;29;20523;-90
2022/03/31 11:15:07;;;;;;;7.63;3.33;;;2.50;99.90;;;;;;4894670;29;20370;-92
2022/03/31 11:17:34;;;;;;;8.82;4.22;;;2.40;99.90;;;;;;4896113;29;20036;-90
2022/03/31 11:20:03;;;;;;;9.35;4.50;;;2.40;99.90;;;;;;4877283;29;20486;-92
2022/03/31 11:22:29;;;;;;;10.52;5.10;;;2.40;99.90;;;;;;4880465;29;20064;-95
2022/03/31 11:25:07;;;;;;;8.85;3.90;;;2.40;99.90;;;;;;4879188;29;20041;-91
2022/03/31 11:27:38;;;;;;;9.45;4.65;;;2.30;99.90;;;;;;4862433;29;20108;-93
2022/03/31 11:30:09;;;;;;;8.85;4.85;;;2.20;99.90;;;;;;4892011;29;20044;-93
2022/03/31 11:32:36;;;;;;;8.60;4.20;;;2.30;99.90;;;;;;4894571;29;20045;-91
2022/03/31 11:35:13;;;;;;;10.68;5.25;;;2.20;99.90;;;;;;4878277;29;20055;-92
2022/03/31 11:37:50;;;;;;;12.27;5.90;;;2.10;99.90;;;;;;4877476;29;20188;-90
2022/03/31 11:40:20;;;;;;;9.65;4.10;;;2.20;99.90;;;;;;4876068;29;20052;-91
2022/03/31 11:42:47;;;;;;;10.77;5.53;;;2.10;99.90;;;;;;4896349;29;20055;-90
2022/03/31 11:45:29;;;;;;;7.90;3.92;;;2.10;99.90;;;;;;4876203;29;20056;-89
2022/03/31 11:48:01;;;;;;;7.43;3.50;;;2.10;99.90;;;;;;4874667;29;20478;-91
2022/03/31 11:50:28;;;;;;;7.55;3.88;;;2.10;99.90;;;;;;4878288;29;20079;-92
2022/03/31 11:52:54;;;;;;;9.27;4.65;;;2.10;99.90;;;;;;4864221;29;20541;-93
2022/03/31 11:55:21;;;;;;;8.48;4.43;;;2.10;99.90;;;;;;4875813;29;20490;-93
2022/03/31 11:57:52;;;;;;;8.65;4.43;;;2.10;99.90;;;;;;4896173;29;20105;-93
2022/03/31 12:00:18;;;;;;;8.43;4.22;;;2.10;99.90;;;;;;4896715;29;20041;-94
2022/03/31 12:02:55;;;;;;;9.25;4.65;;;2.10;99.90;;;;;;4878454;29;20048;-93
2022/03/31 12:05:21;;;;;;;8.57;4.45;;;2.10;99.90;;;;;;4895380;29;20072;-93
2022/03/31 12:07:48;;;;;;;10.02;5.13;;;2.10;99.90;;;;;;4877423;29;20167;-91
2022/03/31 12:10:14;;;;;;;9.27;4.90;;;2.20;99.90;;;;;;4877619;29;20060;-92
2022/03/31 12:12:47;;;;;;;10.40;5.53;;;2.20;99.90;;;;;;4894565;29;20087;-91
2022/03/31 12:15:28;;;;;;;9.98;5.72;;;2.20;99.90;;;;;;4876704;29;20052;-90
2022/03/31 12:18:02;;;;;;;11.15;6.07;;;2.20;99.90;;;;;;4894550;29;20048;-92
2022/03/31 12:20:29;;;;;;;11.07;5.88;;;2.30;99.90;;;;;;4874418;29;20097;-91
2022/03/31 12:22:55;;;;;;;12.65;7.00;;;2.30;99.90;;;;;;4877043;29;20049;-92
2022/03/31 12:25:28;;;;;;;12.15;6.85;;;2.30;99.90;;;;;;4877952;29;20060;-92
2022/03/31 12:27:53;;;;;;;12.25;6.97;;;2.30;99.90;;;;;;4894830;29;20053;-92
2022/03/31 12:30:19;;;;;;;11.95;7.20;;;2.30;99.90;;;;;;4891492;29;20108;-93
2022/03/31 12:32:47;;;;;;;12.93;7.45;;;2.30;99.90;;;;;;4893789;29;20070;-92
2022/03/31 12:35:13;;;;;;;14.43;7.40;;;2.30;99.90;;;;;;4893205;29;20049;-89
2022/03/31 12:37:41;;;;;;;15.77;8.70;;;2.30;99.90;;;;;;4878084;29;20047;-91
2022/03/31 12:40:12;;;;;;;14.88;8.90;;;2.40;99.90;;;;;;4860100;29;20188;-93
2022/03/31 12:42:59;;;;;;;14.90;8.65;;;2.40;99.90;;;;;;4869441;29;20135;-93
2022/03/31 12:45:25;;;;;;;17.27;9.40;;;2.50;99.90;;;;;;4891962;29;20052;-92
2022/03/31 12:47:51;;;;;;;15.70;9.25;;;2.50;99.90;;;;;;4877813;29;20451;-92
2022/03/31 12:50:27;;;;;;;18.35;10.73;;;2.50;99.90;;;;;;4877535;29;20147;-91
2022/03/31 12:52:55;;;;;;;18.50;11.38;;;2.50;99.90;;;;;;4877414;29;20443;-91
2022/03/31 12:55:29;;;;;;;17.67;10.20;;;2.60;99.90;;;;;;4876988;29;20549;-92
2022/03/31 12:57:56;;;;;;;18.30;11.88;;;2.60;99.90;;;;;;4876480;29;20151;-88
2022/03/31 13:00:22;;;;;;;22.10;12.75;;;2.60;99.90;;;;;;4894586;29;20100;-92
2022/03/31 13:02:48;;;;;;;22.10;12.18;;;2.70;99.90;;;;;;4877648;29;20147;-93
2022/03/31 13:05:23;;;;;;;23.77;13.15;;;2.70;99.90;;;;;;4879666;29;20048;-93
2022/03/31 13:07:51;;;;;;;22.17;14.48;;;2.80;99.90;;;;;;4901832;29;20036;-91
2022/03/31 13:10:18;;;;;;;23.63;15.85;;;2.80;99.90;;;;;;4896732;29;20465;-94
2022/03/31 13:12:44;;;;;;;27.85;16.80;;;2.80;99.90;;;;;;4893642;29;20119;-92
2022/03/31 13:15:12;;;;;;;27.55;17.02;;;2.90;99.90;;;;;;4875709;29;20059;-92
2022/03/31 13:17:40;;;;;;;27.58;17.60;;;3.00;99.90;;;;;;4877352;29;20041;-92